createdAt,value
2023-03-23T15:59:15.757Z,100070.41
2023-03-23T16:01:46.508Z,100068.00
2023-03-23T16:04:21.768Z,100074.81
2023-03-23T16:06:54.144Z,100077.88
2023-03-23T16:09:25.304Z,100075.47
2023-03-23T16:11:55.543Z,100071.41
2023-03-23T16:14:25.993Z,100069.97
2023-03-23T16:16:56.365Z,100076.66
2023-03-23T16:19:27.324Z,100078.44
2023-03-23T16:21:57.598Z,100078.22
2023-03-23T16:24:28.205Z,100080.72
2023-03-23T16:26:58.636Z,100077.28
2023-03-23T16:32:04.525Z,100083.13
2023-03-23T16:34:37.065Z,100075.28
2023-03-23T16:37:08.774Z,100075.47
2023-03-23T16:39:38.949Z,100081.75
2023-03-23T16:42:09.186Z,100081.84
2023-03-23T16:44:39.562Z,100083.66
2023-03-23T16:47:09.900Z,100083.03
2023-03-23T16:49:41.036Z,100091.63
2023-03-23T16:52:12.095Z,100096.25
2023-03-23T16:54:42.695Z,100099.38
2023-03-23T16:57:14.132Z,100095.81
2023-03-23T16:59:45.675Z,100097.59
2023-03-23T17:02:16.025Z,100099.69
2023-03-23T17:04:48.209Z,100094.34
2023-03-23T17:07:18.551Z,100101.97
2023-03-23T17:09:49.465Z,100106.25
2023-03-23T17:12:20.837Z,100117.81
2023-03-23T17:14:51.471Z,100114.94
2023-03-23T17:17:22.255Z,100104.94
2023-03-23T17:19:53.259Z,100109.78
2023-03-23T17:22:23.637Z,100116.06
2023-03-23T17:24:54.640Z,100114.78
2023-03-23T17:27:25.124Z,100124.19
2023-03-23T17:29:55.847Z,100116.22
2023-03-23T17:32:26.828Z,100126.06
2023-03-23T17:34:57.229Z,100116.69
2023-03-23T17:37:27.658Z,100120.13
2023-03-23T17:39:58.063Z,100112.28
2023-03-23T17:42:28.634Z,100110.94
2023-03-23T17:44:59.024Z,100115.44
2023-03-23T17:47:30.696Z,100107.38
2023-03-23T17:50:01.085Z,100104.75
2023-03-23T17:52:44.909Z,100115.22
2023-03-23T17:55:15.370Z,100118.66
2023-03-23T17:57:46.241Z,100107.56
2023-03-23T18:00:17.291Z,100112.94
2023-03-23T18:02:47.820Z,100105.19
2023-03-23T18:05:18.382Z,100096.72
2023-03-23T18:07:48.846Z,100100.50
2023-03-23T18:10:19.345Z,100104.56
2023-03-23T18:12:54.736Z,100108.13
2023-03-23T18:15:28.541Z,100119.00
2023-03-23T18:18:00.332Z,100106.66
2023-03-23T18:20:33.029Z,100115.25
2023-03-23T18:23:05.222Z,100112.03
2023-03-23T18:25:36.096Z,100104.19
2023-03-23T18:28:07.123Z,100113.88
2023-03-23T18:30:38.263Z,100124.25
2023-03-23T18:33:08.777Z,100118.50
2023-03-23T18:35:39.229Z,100114.19
2023-03-23T18:38:09.899Z,100108.75
2023-03-23T18:40:49.630Z,100111.38
2023-03-23T18:43:20.518Z,100114.00
2023-03-23T18:45:59.086Z,100121.09
2023-03-23T18:48:29.732Z,100121.09
2023-03-23T18:51:02.587Z,100119.41
2023-03-23T18:53:33.528Z,100120.16
2023-03-23T18:56:15.700Z,100122.88
2023-03-23T18:58:47.191Z,100123.63
2023-03-23T19:01:19.359Z,100127.06
2023-03-23T19:03:50.022Z,100131.56
2023-03-23T19:06:29.272Z,100128.00
2023-03-23T19:09:00.315Z,100134.16
2023-03-23T19:11:30.700Z,100137.00
2023-03-23T19:14:03.416Z,100137.00
2023-03-23T19:16:37.034Z,100135.22
2023-03-23T19:19:09.895Z,100136.06
2023-03-23T19:21:43.817Z,100139.72
2023-03-23T19:24:17.311Z,100142.44
2023-03-23T19:26:49.258Z,100135.97
2023-03-23T19:31:55.457Z,100134.19
2023-03-23T19:34:28.953Z,100136.81
2023-03-23T19:37:05.330Z,100124.66
2023-03-23T19:39:37.539Z,100137.84
2023-03-23T19:42:08.545Z,100141.41
2023-03-23T19:44:38.963Z,100141.41
2023-03-23T19:47:09.560Z,100142.97
2023-03-23T19:49:40.596Z,100137.00
2023-03-23T19:52:13.225Z,100138.81
2023-03-23T19:54:45.861Z,100146.75
2023-03-23T19:57:17.105Z,100146.13
2023-03-23T19:59:48.295Z,100158.69
2023-03-23T20:02:19.368Z,100164.03
2023-03-23T20:04:50.545Z,100169.25
2023-03-23T20:07:21.383Z,100169.25
2023-03-23T20:09:52.131Z,100179.16
2023-03-23T20:12:22.536Z,100173.63
2023-03-23T20:14:53.177Z,100171.94
2023-03-23T20:17:23.529Z,100180.44
2023-03-23T20:19:55.004Z,100172.91
2023-03-23T20:22:25.524Z,100176.66
2023-03-23T20:24:55.939Z,100184.38
2023-03-23T20:27:26.668Z,100180.03
2023-03-23T20:29:58.053Z,100171.31
2023-03-23T20:32:28.436Z,100171.22
2023-03-23T20:34:59.084Z,100171.94
2023-03-23T20:37:31.264Z,100163.59
2023-03-23T20:40:04.683Z,100161.91
2023-03-23T20:42:36.762Z,100166.19
2023-03-23T20:45:09.968Z,100159.19
2023-03-23T20:47:41.484Z,100149.56
2023-03-23T20:50:13.865Z,100139.13
2023-03-23T20:52:44.327Z,100131.28
2023-03-23T20:55:16.829Z,100128.66
2023-03-23T20:57:47.266Z,100123.97
2023-03-23T21:00:19.500Z,100119.69
2023-03-23T21:02:51.126Z,100120.63
2023-03-23T21:05:22.947Z,100120.72
2023-03-23T21:07:54.191Z,100121.78
2023-03-23T21:10:27.192Z,100131.28
2023-03-23T21:12:58.779Z,100131.59
2023-03-23T21:15:29.642Z,100142.22
2023-03-23T21:18:00.112Z,100141.41
2023-03-23T21:20:31.021Z,100146.50
2023-03-23T21:23:03.165Z,100155.47
2023-03-23T21:25:36.157Z,100157.38
2023-03-23T21:28:08.327Z,100172.09
2023-03-23T21:30:43.604Z,100174.06
2023-03-23T21:33:15.278Z,100181.06
2023-03-23T21:35:46.481Z,100193.41
2023-03-23T21:38:16.829Z,100189.84
2023-03-23T21:40:48.097Z,100190.88
2023-03-23T21:43:19.654Z,100200.59
2023-03-23T21:45:50.154Z,100215.97
2023-03-23T21:48:23.502Z,100227.44
2023-03-23T21:50:53.284Z,100237.41
2023-03-23T21:53:26.820Z,100241.19
2023-03-23T21:55:57.248Z,100238.19
2023-03-23T21:58:29.047Z,100252.19
2023-03-23T22:01:01.170Z,100256.91
2023-03-23T22:03:36.210Z,100261.31
2023-03-23T22:06:14.723Z,100263.63
2023-03-23T22:08:47.456Z,100274.38
2023-03-23T22:11:25.318Z,100280.72
2023-03-23T22:13:57.788Z,100296.38
2023-03-23T22:16:28.621Z,100310.09
2023-03-23T22:19:00.531Z,100304.56
2023-03-23T22:21:32.071Z,100313.44
2023-03-23T22:24:03.506Z,100322.13
2023-03-23T22:26:34.479Z,100325.91
2023-03-23T22:29:06.023Z,100334.94
2023-03-23T22:31:39.484Z,100348.94
2023-03-23T22:34:09.998Z,100370.22
2023-03-23T22:36:41.237Z,100359.38
2023-03-23T22:39:12.455Z,100380.28
2023-03-23T22:41:44.120Z,100380.28
2023-03-23T22:44:22.089Z,100389.06
2023-03-23T22:46:52.773Z,100391.59
2023-03-23T22:49:23.306Z,100397.56
2023-03-23T22:51:53.724Z,100402.97
2023-03-23T22:54:24.266Z,100406.50
2023-03-23T22:56:54.780Z,100415.41
2023-03-23T22:59:25.333Z,100420.41
2023-03-23T23:01:55.669Z,100416.84
2023-03-23T23:04:26.296Z,100429.00
2023-03-23T23:07:06.719Z,100430.69
2023-03-23T23:09:46.710Z,100426.56
2023-03-23T23:12:18.555Z,100419.47
2023-03-23T23:14:49.418Z,100418.75
2023-03-23T23:17:19.680Z,100418.75
2023-03-23T23:19:49.968Z,100419.47
2023-03-23T23:22:20.404Z,100424.09
2023-03-23T23:24:51.000Z,100427.44
2023-03-23T23:27:22.045Z,100424.81
2023-03-23T23:29:52.550Z,100439.66
2023-03-23T23:32:23.099Z,100450.19
2023-03-23T23:34:54.331Z,100439.66
2023-03-23T23:37:25.394Z,100454.38
2023-03-23T23:39:55.889Z,100453.91
2023-03-23T23:42:26.843Z,100456.53
2023-03-23T23:44:57.302Z,100463.59
2023-03-23T23:47:28.800Z,100478.84
2023-03-23T23:49:59.280Z,100479.78
2023-03-23T23:52:29.727Z,100470.72
2023-03-23T23:55:00.143Z,100484.16
2023-03-23T23:57:31.380Z,100485.72
